createdAt,value
2022-07-30T00:03:15.809Z,100055.97
2022-07-30T00:08:17.460Z,100060.38
2022-07-30T00:13:19.075Z,100063.09
2022-07-30T00:18:20.689Z,100068.09
2022-07-30T00:23:24.144Z,100077.25
2022-07-30T00:28:25.750Z,100083.75
2022-07-30T00:33:27.397Z,100089.22
2022-07-30T00:38:28.975Z,100086.03
2022-07-30T00:43:30.563Z,100081.75
2022-07-30T00:48:32.230Z,100081.88
2022-07-30T00:53:34.661Z,100070.59
2022-07-30T00:58:36.314Z,100058.78
2022-07-30T01:03:38.036Z,100055.00
2022-07-30T01:08:39.663Z,100065.31
2022-07-30T01:13:41.404Z,100062.22
2022-07-30T01:19:03.718Z,100067.31
2022-07-30T01:24:19.465Z,100064.84
2022-07-30T01:29:22.953Z,100074.19
2022-07-30T01:34:34.292Z,100067.84
2022-07-30T01:39:36.659Z,100061.91
2022-07-30T01:44:39.402Z,100061.84
2022-07-30T01:49:41.753Z,100058.94
2022-07-30T01:54:45.713Z,100059.19
2022-07-30T01:59:49.587Z,100060.31
2022-07-30T02:04:53.553Z,100058.78
2022-07-30T02:10:17.837Z,100055.78
2022-07-30T02:15:35.069Z,100046.75
2022-07-30T02:20:38.459Z,100042.78
2022-07-30T02:25:50.489Z,100043.38
2022-07-30T02:30:58.139Z,100049.34
2022-07-30T02:36:00.472Z,100053.13
2022-07-30T02:41:02.846Z,100055.22
2022-07-30T02:46:04.812Z,100051.00
2022-07-30T02:51:28.016Z,100052.34
2022-07-30T02:56:30.383Z,100062.34
2022-07-30T03:01:33.596Z,100064.78
2022-07-30T03:06:35.539Z,100063.72
2022-07-30T03:11:38.579Z,100057.53
2022-07-30T03:16:44.163Z,100060.22
2022-07-30T03:21:46.929Z,100069.56
2022-07-30T03:26:49.169Z,100064.19
2022-07-30T03:31:50.937Z,100058.03
2022-07-30T03:36:54.825Z,100049.66
2022-07-30T03:41:56.719Z,100051.22
2022-07-30T03:47:00.963Z,100059.78
2022-07-30T03:52:04.687Z,100067.97
2022-07-30T03:57:06.593Z,100058.25
2022-07-30T04:02:14.955Z,100055.25
2022-07-30T04:07:35.250Z,100062.22
2022-07-30T04:12:46.612Z,100057.84
2022-07-30T04:17:54.181Z,100057.00
2022-07-30T04:22:57.328Z,100063.00
2022-07-30T04:28:03.327Z,100061.25
2022-07-30T04:33:08.280Z,100069.78
2022-07-30T04:38:26.736Z,100071.28
2022-07-30T04:43:28.399Z,100068.63
2022-07-30T04:48:30.449Z,100069.47
2022-07-30T04:53:53.721Z,100069.28
2022-07-30T04:58:56.291Z,100067.50
2022-07-30T05:04:00.342Z,100069.19
2022-07-30T05:09:02.340Z,100064.34
2022-07-30T05:14:03.935Z,100064.56
2022-07-30T05:19:07.575Z,100060.13
2022-07-30T05:24:10.697Z,100056.56
2022-07-30T05:29:17.257Z,100052.59
2022-07-30T05:34:28.850Z,100056.84
2022-07-30T05:39:30.577Z,100045.97
2022-07-30T05:44:52.135Z,100065.03
2022-07-30T05:49:53.777Z,100059.94
2022-07-30T05:54:55.371Z,100068.28
2022-07-30T06:00:00.986Z,100066.63
2022-07-30T06:05:18.225Z,100065.63
2022-07-30T06:10:20.436Z,100075.63
2022-07-30T06:15:25.939Z,100082.00
2022-07-30T06:20:28.532Z,100085.72
2022-07-30T06:26:02.735Z,100092.78
2022-07-30T06:31:04.618Z,100107.78
2022-07-30T06:36:06.752Z,100109.28
2022-07-30T06:41:20.035Z,100104.44
2022-07-30T06:46:27.747Z,100103.22
2022-07-30T06:51:29.408Z,100108.50
2022-07-30T06:56:31.085Z,100117.22
2022-07-30T07:01:38.721Z,100115.28
2022-07-30T07:06:40.937Z,100116.03
2022-07-30T07:11:44.687Z,100123.34
2022-07-30T07:16:50.603Z,100131.28
2022-07-30T07:22:13.550Z,100133.97
2022-07-30T07:27:16.064Z,100133.44
2022-07-30T07:32:20.468Z,100133.06
2022-07-30T07:37:22.951Z,100135.75
2022-07-30T07:42:26.000Z,100137.84
2022-07-30T07:47:28.708Z,100124.94
2022-07-30T07:52:46.883Z,100138.72
2022-07-30T07:57:49.221Z,100138.97
2022-07-30T08:02:51.389Z,100137.44
2022-07-30T08:07:53.590Z,100150.72
2022-07-30T08:13:48.661Z,100140.00
2022-07-30T08:18:58.122Z,100151.13
2022-07-30T08:24:08.814Z,100148.03
2022-07-30T08:29:14.213Z,100153.75
2022-07-30T08:34:20.397Z,100153.78
2022-07-30T08:39:28.274Z,100148.09
2022-07-30T08:44:31.102Z,100155.25
2022-07-30T08:49:33.731Z,100161.44
2022-07-30T08:54:35.467Z,100158.59
2022-07-30T08:59:59.500Z,100167.47
2022-07-30T09:05:02.556Z,100167.41
2022-07-30T09:10:08.730Z,100168.47
2022-07-30T09:15:15.928Z,100175.59
2022-07-30T09:20:18.948Z,100168.94
2022-07-30T09:25:53.034Z,100173.56
2022-07-30T09:31:13.658Z,100180.97
2022-07-30T09:36:34.077Z,100180.66
2022-07-30T09:41:54.713Z,100199.81
2022-07-30T09:46:57.601Z,100198.31
2022-07-30T09:52:02.952Z,100192.59
2022-07-30T10:02:35.922Z,100189.63
2022-07-30T10:08:18.955Z,100193.31
2022-07-30T10:13:22.032Z,100193.00
2022-07-30T10:18:25.266Z,100201.53
2022-07-30T10:23:32.670Z,100200.94
2022-07-30T10:28:54.437Z,100206.97
2022-07-30T10:33:57.282Z,100206.94
2022-07-30T10:39:00.495Z,100208.25
2022-07-30T10:44:29.583Z,100203.81
2022-07-30T10:49:35.243Z,100217.09
2022-07-30T10:54:47.444Z,100214.66
2022-07-30T10:59:56.077Z,100211.38
2022-07-30T11:05:27.277Z,100210.78
2022-07-30T11:10:43.905Z,100208.97
2022-07-30T11:15:54.524Z,100206.47
2022-07-30T11:21:15.014Z,100191.84
2022-07-30T11:26:50.081Z,100198.13
2022-07-30T11:31:56.802Z,100191.66
2022-07-30T11:37:19.286Z,100189.25
2022-07-30T11:42:31.305Z,100187.22
2022-07-30T11:47:33.010Z,100183.31
2022-07-30T11:52:34.726Z,100194.81
2022-07-30T11:57:40.588Z,100187.84
2022-07-30T12:02:42.289Z,100192.34
2022-07-30T12:07:43.966Z,100199.09
2022-07-30T12:12:46.783Z,100198.50
2022-07-30T12:17:51.375Z,100201.88
2022-07-30T12:22:58.563Z,100199.59
2022-07-30T12:28:00.488Z,100198.66
2022-07-30T12:33:02.108Z,100194.47
2022-07-30T12:38:04.734Z,100200.91
2022-07-30T12:43:06.354Z,100202.56
2022-07-30T12:48:15.535Z,100193.16
2022-07-30T12:53:17.329Z,100190.44
2022-07-30T12:58:18.919Z,100182.25
2022-07-30T13:03:27.579Z,100193.41
2022-07-30T13:08:53.169Z,100200.19
2022-07-30T13:13:54.797Z,100194.22
2022-07-30T13:18:56.408Z,100195.53
2022-07-30T13:23:58.047Z,100194.47
2022-07-30T13:29:01.947Z,100188.69
2022-07-30T13:34:04.802Z,100187.38
2022-07-30T13:39:06.579Z,100191.78
2022-07-30T13:44:08.223Z,100192.34
2022-07-30T13:49:10.946Z,100199.25
2022-07-30T13:54:13.940Z,100196.50
2022-07-30T13:59:15.665Z,100191.97
2022-07-30T14:04:17.300Z,100194.72
2022-07-30T14:09:18.938Z,100200.91
2022-07-30T14:14:22.426Z,100215.06
2022-07-30T14:19:24.685Z,100208.94
2022-07-30T14:24:26.321Z,100207.53
2022-07-30T14:29:28.283Z,100198.00
2022-07-30T14:34:29.875Z,100197.84
2022-07-30T14:39:31.565Z,100199.91
2022-07-30T14:44:33.384Z,100203.25
2022-07-30T14:49:35.226Z,100212.91
2022-07-30T14:54:36.862Z,100203.88
2022-07-30T14:59:38.491Z,100202.31
2022-07-30T15:04:40.106Z,100201.97
2022-07-30T15:09:41.718Z,100209.94
2022-07-30T15:14:43.824Z,100212.25
2022-07-30T15:19:50.244Z,100213.97
2022-07-30T15:24:52.950Z,100207.63
2022-07-30T15:29:54.692Z,100210.38
2022-07-30T15:34:56.454Z,100217.06
2022-07-30T15:39:58.487Z,100222.88
2022-07-30T15:45:18.853Z,100229.97
2022-07-30T15:50:20.682Z,100219.28
2022-07-30T15:55:22.338Z,100225.94
2022-07-30T16:00:24.066Z,100215.06
2022-07-30T16:05:25.782Z,100207.84
2022-07-30T16:10:29.633Z,100217.53
2022-07-30T16:15:34.542Z,100229.06
2022-07-30T16:20:36.245Z,100229.28
2022-07-30T16:25:38.340Z,100238.97
2022-07-30T16:30:50.779Z,100233.03
2022-07-30T16:35:52.783Z,100248.44
2022-07-30T16:40:54.479Z,100255.19
2022-07-30T16:45:56.062Z,100258.03
2022-07-30T16:50:57.690Z,100260.13
2022-07-30T16:55:59.478Z,100257.91
2022-07-30T17:01:01.140Z,100266.03
2022-07-30T17:06:02.859Z,100276.94
2022-07-30T17:11:09.068Z,100286.25
2022-07-30T17:16:11.992Z,100294.22
2022-07-30T17:21:14.212Z,100291.78
2022-07-30T17:26:15.920Z,100296.19
2022-07-30T17:31:17.629Z,100293.44
2022-07-30T17:36:19.917Z,100287.38
2022-07-30T17:41:21.519Z,100289.06
2022-07-30T17:46:23.350Z,100290.50
2022-07-30T17:51:24.978Z,100303.38
2022-07-30T17:56:27.446Z,100298.59
2022-07-30T18:01:29.816Z,100302.72
2022-07-30T18:06:31.590Z,100307.94
2022-07-30T18:11:33.420Z,100304.69
2022-07-30T18:16:35.068Z,100311.97
2022-07-30T18:21:38.517Z,100321.66
2022-07-30T18:26:40.428Z,100326.69
2022-07-30T18:31:42.138Z,100333.38
2022-07-30T18:36:43.793Z,100327.56
2022-07-30T18:41:45.351Z,100336.28
2022-07-30T18:46:46.916Z,100348.28
2022-07-30T18:51:48.490Z,100351.44
2022-07-30T18:56:51.524Z,100348.47
2022-07-30T19:01:54.241Z,100356.31
2022-07-30T19:06:55.808Z,100365.50
2022-07-30T19:11:57.411Z,100374.53
2022-07-30T19:16:59.404Z,100366.97
2022-07-30T19:22:02.065Z,100364.69
2022-07-30T19:27:04.521Z,100363.25
2022-07-30T19:32:06.730Z,100367.41
2022-07-30T19:37:08.333Z,100361.13
2022-07-30T19:42:10.002Z,100361.91
2022-07-30T19:47:11.983Z,100367.91
2022-07-30T19:52:23.222Z,100365.47
2022-07-30T19:57:53.221Z,100372.47
2022-07-30T20:02:49.113Z,100368.59
2022-07-30T20:07:50.876Z,100364.75
2022-07-30T20:12:56.044Z,100369.75
2022-07-30T20:17:58.601Z,100373.75
2022-07-30T20:23:00.240Z,100361.03
2022-07-30T20:28:01.947Z,100369.19
2022-07-30T20:33:04.379Z,100366.06
2022-07-30T20:38:10.195Z,100366.91
2022-07-30T20:43:12.091Z,100364.09
2022-07-30T20:48:17.091Z,100367.00
2022-07-30T20:53:33.714Z,100370.38
2022-07-30T20:58:38.715Z,100377.97
2022-07-30T21:03:43.460Z,100376.88
2022-07-30T21:08:49.517Z,100369.16
2022-07-30T21:13:51.631Z,100382.09
2022-07-30T21:18:53.589Z,100386.91
2022-07-30T21:23:55.282Z,100372.97
2022-07-30T21:28:56.914Z,100376.28
2022-07-30T21:33:59.455Z,100377.97
2022-07-30T21:39:01.203Z,100379.06
2022-07-30T21:44:04.580Z,100385.53
2022-07-30T21:49:07.817Z,100389.94
2022-07-30T21:54:09.484Z,100382.63
2022-07-30T21:59:11.520Z,100385.16
2022-07-30T22:04:13.153Z,100394.75
2022-07-30T22:09:34.242Z,100387.66
2022-07-30T22:14:36.105Z,100399.56
2022-07-30T22:19:38.054Z,100398.53
2022-07-30T22:24:39.678Z,100398.94
2022-07-30T22:29:42.532Z,100391.63
2022-07-30T22:34:44.873Z,100387.22
2022-07-30T22:39:51.980Z,100374.66
2022-07-30T22:44:55.846Z,100381.38
2022-07-30T22:49:59.298Z,100378.88
2022-07-30T22:55:09.186Z,100363.41
2022-07-30T23:00:14.134Z,100360.69
2022-07-30T23:05:28.821Z,100363.63
2022-07-30T23:10:31.127Z,100359.22
2022-07-30T23:15:34.567Z,100356.28
2022-07-30T23:20:37.725Z,100351.69
2022-07-30T23:25:39.485Z,100351.28
2022-07-30T23:30:41.189Z,100336.47
2022-07-30T23:35:43.688Z,100338.56
2022-07-30T23:40:45.322Z,100340.44
2022-07-30T23:45:46.916Z,100335.63
2022-07-30T23:50:48.752Z,100326.63
2022-07-30T23:55:51.246Z,100332.91
